Time;durP1;ratioP1;P1;durP2;ratioP2;P2;SDS_P1;SDS_P2;PMS_P1;PMS_P2;Temp;Humidity;BMP_temperature;BMP_pressure;BME280_temperature;BME280_humidity;BME280_pressure;Samples;Min_cycle;Max_cycle;Signal;HPM_P1;HPM_P2
2021/05/07 00:01:37;;;;;;;9.98;2.95;;;;;;;6.93;97.40;99926.25;5036563;28;20041;-79
2021/05/07 00:04:03;;;;;;;8.48;3.08;;;;;;;6.90;97.73;99932.31;5035379;28;20030;-79
2021/05/07 00:06:29;;;;;;;6.32;3.05;;;;;;;6.89;97.53;99928.06;5043875;28;20048;-79
2021/05/07 00:08:55;;;;;;;4.53;3.25;;;;;;;6.99;97.66;99924.88;5027898;28;20033;-79
2021/05/07 00:11:20;;;;;;;7.10;2.65;;;;;;;6.96;96.51;99920.22;5018718;28;20037;-79
2021/05/07 00:13:48;;;;;;;9.60;3.13;;;;;;;7.02;95.55;99915.38;5040056;28;20037;-79
2021/05/07 00:16:14;;;;;;;5.75;2.72;;;;;;;6.97;95.62;99913.72;5040819;28;20065;-78
2021/05/07 00:18:40;;;;;;;5.97;2.83;;;;;;;6.92;95.89;99910.56;5051855;28;20041;-79
2021/05/07 00:21:07;;;;;;;4.85;2.72;;;;;;;7.00;96.05;99920.31;5041866;28;20486;-79
2021/05/07 00:23:33;;;;;;;6.90;2.90;;;;;;;7.07;95.37;99918.56;5048187;28;20110;-79
2021/05/07 00:25:59;;;;;;;5.30;3.05;;;;;;;7.00;95.16;99925.66;5042083;28;20029;-79
2021/05/07 00:28:25;;;;;;;7.10;3.28;;;;;;;6.97;96.73;99921.75;5053531;28;20283;-79
2021/05/07 00:30:50;;;;;;;10.13;3.30;;;;;;;6.90;97.58;99920.81;5038120;28;20030;-79
2021/05/07 00:33:16;;;;;;;7.72;3.25;;;;;;;6.84;99.05;99923.00;5035101;28;21123;-79
2021/05/07 00:35:42;;;;;;;5.03;2.78;;;;;;;6.79;99.87;99912.56;5043674;28;20036;-79
2021/05/07 00:38:07;;;;;;;5.60;3.20;;;;;;;6.85;100.00;99926.47;5036930;28;20045;-78
2021/05/07 00:40:34;;;;;;;9.00;3.30;;;;;;;6.95;100.00;99929.38;5030471;28;20102;-79
2021/05/07 00:43:01;;;;;;;11.32;3.28;;;;;;;6.98;100.00;99928.69;5034262;28;20025;-79
2021/05/07 00:45:29;;;;;;;6.22;3.85;;;;;;;7.06;99.95;99924.25;5042000;28;20406;-79
2021/05/07 00:48:08;;;;;;;6.20;3.17;;;;;;;7.18;100.00;99932.94;5037974;28;20040;-79
2021/05/07 00:50:35;;;;;;;4.07;3.08;;;;;;;7.16;100.00;99924.47;5044370;28;20113;-79
2021/05/07 00:53:02;;;;;;;5.55;3.15;;;;;;;6.89;100.00;99928.06;5038690;28;20478;-79
2021/05/07 00:55:30;;;;;;;6.35;3.10;;;;;;;7.00;100.00;99928.31;5036934;28;20033;-79
2021/05/07 00:57:57;;;;;;;7.07;3.08;;;;;;;7.19;99.71;99936.41;5033783;28;20037;-79
2021/05/07 01:00:27;;;;;;;3.80;2.75;;;;;;;7.18;98.33;99937.53;5027019;28;20033;-79
2021/05/07 01:02:54;;;;;;;11.85;3.00;;;;;;;6.98;99.28;99939.38;5028655;28;20064;-79
2021/05/07 01:05:21;;;;;;;6.45;3.28;;;;;;;6.98;99.26;99927.91;5034197;28;20025;-79
2021/05/07 01:07:47;;;;;;;7.78;3.25;;;;;;;6.85;98.92;99935.25;5035545;28;20096;-79
2021/05/07 01:10:14;;;;;;;6.57;3.10;;;;;;;6.91;98.86;99927.75;5027670;28;20029;-79
2021/05/07 01:12:41;;;;;;;10.25;3.00;;;;;;;6.96;98.11;99935.50;5035653;28;20055;-79
2021/05/07 01:15:21;;;;;;;7.93;3.10;;;;;;;7.07;96.81;99931.16;5032124;28;20057;-78
2021/05/07 01:17:52;;;;;;;7.68;3.08;;;;;;;7.03;96.69;99935.66;5026265;28;20038;-79
2021/05/07 01:20:22;;;;;;;7.22;2.75;;;;;;;6.94;96.52;99929.72;5053335;22;20045;-78
2021/05/07 01:22:50;;;;;;;7.32;3.05;;;;;;;7.08;96.35;99928.13;5030636;28;20123;-78
2021/05/07 01:25:18;;;;;;;8.00;3.13;;;;;;;7.00;97.42;99923.75;5005639;28;20383;-78
2021/05/07 01:27:46;;;;;;;5.65;3.22;;;;;;;6.95;97.71;99933.97;5018476;28;20037;-78
2021/05/07 01:30:14;;;;;;;5.88;3.00;;;;;;;6.95;98.67;99918.66;5027844;28;20045;-78
2021/05/07 01:32:40;;;;;;;7.38;3.35;;;;;;;7.02;98.35;99926.88;5020546;28;20033;-80
2021/05/07 01:35:08;;;;;;;7.28;3.53;;;;;;;7.04;99.46;99918.47;5022080;28;20036;-78
2021/05/07 01:37:36;;;;;;;5.43;3.30;;;;;;;7.03;99.83;99920.38;5016780;28;20059;-78
2021/05/07 01:40:09;;;;;;;5.78;3.33;;;;;;;7.06;99.96;99910.88;5029440;28;20041;-78
2021/05/07 01:42:34;;;;;;;8.32;3.38;;;;;;;7.07;99.87;99909.75;5026797;28;20121;-78
2021/05/07 01:45:00;;;;;;;4.32;2.95;;;;;;;6.99;100.00;99914.16;5033528;28;20069;-78
2021/05/07 01:47:25;;;;;;;3.65;2.75;;;;;;;6.95;100.00;99918.66;5025236;28;20030;-78
2021/05/07 01:49:51;;;;;;;7.63;3.10;;;;;;;7.11;99.46;99921.31;5014789;28;20029;-78
2021/05/07 01:52:17;;;;;;;6.90;3.50;;;;;;;7.17;97.15;99923.38;5028167;28;20086;-76
2021/05/07 01:54:43;;;;;;;7.07;3.22;;;;;;;7.12;96.36;99922.88;5012046;28;20061;-78
2021/05/07 01:57:08;;;;;;;6.53;3.03;;;;;;;6.92;95.99;99922.03;5011674;28;20619;-76
2021/05/07 01:59:34;;;;;;;7.13;3.30;;;;;;;6.85;97.04;99924.53;5016611;28;20033;-78
2021/05/07 02:01:59;;;;;;;6.65;3.13;;;;;;;6.96;97.42;99930.94;5025801;28;20087;-78
2021/05/07 02:04:25;;;;;;;10.05;3.33;;;;;;;6.96;96.64;99930.94;5027909;28;20052;-78
2021/05/07 02:06:52;;;;;;;7.65;3.50;;;;;;;6.92;95.93;99929.28;5031260;28;20037;-78
2021/05/07 02:09:17;;;;;;;6.63;3.17;;;;;;;6.91;97.01;99925.81;5019082;28;20512;-79
2021/05/07 02:11:43;;;;;;;5.15;3.47;;;;;;;6.79;98.07;99925.94;5033365;28;20109;-76
2021/05/07 02:14:09;;;;;;;6.35;2.88;;;;;;;6.81;98.15;99930.94;5030299;28;20470;-75
2021/05/07 02:16:34;;;;;;;6.93;2.83;;;;;;;6.93;97.82;99938.88;5028712;28;20037;-76
2021/05/07 02:19:03;;;;;;;8.80;2.72;;;;;;;6.91;97.05;99941.88;5019870;28;20034;-75
2021/05/07 02:21:29;;;;;;;8.95;3.28;;;;;;;6.80;98.50;99942.75;5021909;28;20494;-75
2021/05/07 02:23:57;;;;;;;7.07;3.20;;;;;;;6.94;99.68;99948.44;5021847;28;20083;-76
2021/05/07 02:26:22;;;;;;;4.80;2.95;;;;;;;7.16;99.47;99934.44;5022268;28;20033;-76
2021/05/07 02:28:54;;;;;;;;;;;;;;;7.36;98.41;99938.69;5021189;28;20034;-75
2021/05/07 02:31:22;;;;;;;4.80;3.08;;;;;;;7.17;99.40;99947.47;5011709;28;19917;-78
2021/05/07 02:33:47;;;;;;;6.07;3.10;;;;;;;7.06;100.00;99951.81;5029814;28;20040;-78
2021/05/07 02:36:16;;;;;;;6.07;3.15;;;;;;;7.07;100.00;99947.22;5015637;28;20030;-78
2021/05/07 02:38:41;;;;;;;5.93;3.40;;;;;;;7.00;100.00;99958.56;5024334;28;20037;-78
2021/05/07 02:41:08;;;;;;;13.00;3.47;;;;;;;6.98;100.00;99960.81;5041286;28;20040;-77
2021/05/07 02:43:34;;;;;;;4.95;2.95;;;;;;;7.09;100.00;99950.31;5033470;28;20480;-78
2021/05/07 02:46:01;;;;;;;6.95;3.70;;;;;;;7.08;100.00;99957.56;5023765;28;20033;-77
2021/05/07 02:48:27;;;;;;;5.35;2.85;;;;;;;6.96;100.00;99952.34;5024690;28;20048;-78
2021/05/07 02:50:52;;;;;;;6.20;3.00;;;;;;;7.08;100.00;99952.22;5027546;28;20032;-78
2021/05/07 02:53:18;;;;;;;5.32;2.88;;;;;;;6.96;100.00;99951.56;5033510;28;20031;-78
2021/05/07 02:55:43;;;;;;;3.65;3.03;;;;;;;6.94;100.00;99951.91;5020036;28;20086;-78
2021/05/07 02:58:09;;;;;;;7.28;2.88;;;;;;;6.94;100.00;99946.56;5027768;28;20030;-77
2021/05/07 03:00:35;;;;;;;6.25;3.40;;;;;;;6.95;100.00;99947.34;5034545;28;20060;-78
2021/05/07 03:03:00;;;;;;;5.65;3.40;;;;;;;6.88;100.00;99950.63;5021506;28;20040;-77
2021/05/07 03:05:26;;;;;;;5.65;2.97;;;;;;;7.01;100.00;99959.31;5018999;28;20096;-78
2021/05/07 03:07:51;;;;;;;5.22;2.97;;;;;;;7.09;100.00;99961.81;5020460;28;20505;-78
2021/05/07 03:10:17;;;;;;;5.75;3.15;;;;;;;7.26;100.00;99960.63;5022773;28;20136;-78
2021/05/07 03:12:42;;;;;;;4.78;2.80;;;;;;;7.32;99.49;99955.81;5027250;28;20030;-78
2021/05/07 03:15:08;;;;;;;4.53;3.00;;;;;;;7.32;99.29;99970.75;5025381;28;20108;-77
2021/05/07 03:17:34;;;;;;;7.05;2.90;;;;;;;7.32;99.13;99963.84;5015743;28;20560;-78
2021/05/07 03:20:00;;;;;;;6.53;2.90;;;;;;;7.17;99.09;99970.78;5021726;28;20033;-77
2021/05/07 03:22:25;;;;;;;5.18;2.85;;;;;;;7.01;98.55;99972.69;5017025;28;20037;-78
2021/05/07 03:24:51;;;;;;;11.05;3.10;;;;;;;7.16;99.09;99979.94;5031924;28;20501;-78
2021/05/07 03:27:17;;;;;;;10.48;2.58;;;;;;;7.04;98.79;99985.41;5018835;28;20016;-77
2021/05/07 03:29:43;;;;;;;4.25;2.80;;;;;;;7.12;99.18;99987.88;5025882;28;20037;-78
2021/05/07 03:32:08;;;;;;;7.47;2.83;;;;;;;7.07;98.00;99979.34;5032569;28;20025;-77
2021/05/07 03:34:34;;;;;;;7.50;2.72;;;;;;;6.91;99.05;99989.31;5027163;28;20029;-78
2021/05/07 03:36:59;;;;;;;8.95;2.55;;;;;;;7.08;98.99;99996.97;5031959;28;20116;-78
2021/05/07 03:39:25;;;;;;;7.22;3.00;;;;;;;7.26;98.27;100000.81;5028371;28;20025;-77
2021/05/07 03:41:50;;;;;;;10.63;3.15;;;;;;;7.36;98.34;99997.59;5032484;28;20040;-78
2021/05/07 03:44:16;;;;;;;6.18;3.28;;;;;;;7.42;97.85;100003.44;5033412;28;20065;-78
2021/05/07 03:46:41;;;;;;;6.47;3.38;;;;;;;7.53;97.23;100007.91;5029892;28;20502;-78
2021/05/07 03:49:07;;;;;;;8.35;3.10;;;;;;;7.60;96.95;100007.31;5021816;28;20026;-77
2021/05/07 03:51:32;;;;;;;9.10;3.17;;;;;;;7.51;96.61;100012.09;5019203;28;20545;-77
2021/05/07 03:53:57;;;;;;;11.88;3.30;;;;;;;7.52;96.54;100017.09;5032552;28;20040;-78
2021/05/07 03:56:23;;;;;;;10.38;3.13;;;;;;;7.87;94.89;100017.06;5024659;28;20778;-77
2021/05/07 03:58:48;;;;;;;12.80;3.70;;;;;;;7.90;94.12;100021.72;5035528;28;20025;-78
2021/05/07 04:01:14;;;;;;;6.80;3.70;;;;;;;7.90;94.73;100027.84;5022723;28;20037;-78
2021/05/07 04:03:40;;;;;;;11.93;3.47;;;;;;;7.83;95.34;100033.06;5018938;28;20088;-78
2021/05/07 04:06:14;;;;;;;10.30;3.40;;;;;;;7.98;95.32;100039.50;5038984;28;20116;-78
2021/05/07 04:08:42;;;;;;;8.85;3.72;;;;;;;7.70;97.02;100038.91;5026341;28;20093;-77
2021/05/07 04:13:51;;;;;;;9.27;3.15;;;;;;;7.61;98.78;100043.66;5029458;28;20034;-78
2021/05/07 04:16:17;;;;;;;6.47;3.45;;;;;;;7.86;98.08;100039.63;5032621;28;20045;-78
2021/05/07 04:18:42;;;;;;;5.85;3.47;;;;;;;7.81;97.68;100053.31;5030708;28;20080;-78
2021/05/07 04:21:08;;;;;;;8.65;3.10;;;;;;;7.85;97.29;100054.94;5025893;28;20036;-78
2021/05/07 04:23:33;;;;;;;7.07;3.10;;;;;;;7.81;97.36;100058.66;5026551;28;20394;-77
2021/05/07 04:26:00;;;;;;;7.45;3.05;;;;;;;8.08;96.03;100066.53;5017578;28;20048;-78
2021/05/07 04:28:26;;;;;;;6.65;2.63;;;;;;;7.90;96.16;100076.09;5029954;28;20037;-78
2021/05/07 04:30:51;;;;;;;8.07;2.75;;;;;;;7.58;97.09;100074.63;5024106;28;20517;-78
2021/05/07 04:33:16;;;;;;;5.82;2.80;;;;;;;7.60;97.73;100076.97;5029230;28;20475;-78
2021/05/07 04:35:42;;;;;;;8.18;2.38;;;;;;;7.69;96.95;100081.00;5027691;28;20029;-78
2021/05/07 04:38:08;;;;;;;8.80;2.40;;;;;;;7.79;96.73;100085.81;5029032;28;20057;-78
2021/05/07 04:40:36;;;;;;;3.95;1.98;;;;;;;7.64;97.44;100085.84;5032920;28;20068;-78
2021/05/07 04:43:01;;;;;;;8.20;2.47;;;;;;;7.50;98.00;100083.63;5020455;28;20030;-78
2021/05/07 04:45:31;;;;;;;6.15;2.40;;;;;;;7.44;98.72;100093.06;5028855;28;20432;-78
2021/05/07 04:47:57;;;;;;;7.50;2.60;;;;;;;7.49;99.21;100092.78;5020259;28;20034;-77
2021/05/07 04:50:23;;;;;;;5.80;2.40;;;;;;;7.48;99.10;100085.88;5013516;28;20046;-78
2021/05/07 04:52:49;;;;;;;6.22;2.22;;;;;;;7.44;98.80;100092.28;5032114;28;20113;-78
2021/05/07 04:55:15;;;;;;;5.47;1.92;;;;;;;7.27;100.00;100096.09;5026142;28;20087;-77
2021/05/07 04:57:41;;;;;;;3.25;2.22;;;;;;;7.29;100.00;100100.00;5030102;28;20048;-77
2021/05/07 05:00:07;;;;;;;5.35;2.28;;;;;;;7.27;100.00;100104.91;5024878;28;20036;-77
2021/05/07 05:02:34;;;;;;;5.40;2.58;;;;;;;7.37;100.00;100100.16;5034619;28;20042;-78
2021/05/07 05:04:59;;;;;;;5.93;2.47;;;;;;;7.18;100.00;100098.94;5035499;28;20038;-78
2021/05/07 05:07:25;;;;;;;5.35;2.40;;;;;;;7.12;100.00;100105.66;5017079;28;20037;-77
2021/05/07 05:09:50;;;;;;;7.22;2.97;;;;;;;6.99;100.00;100112.22;5023947;28;20059;-78
2021/05/07 05:12:16;;;;;;;5.53;2.45;;;;;;;7.11;100.00;100109.47;5029214;28;20025;-78
2021/05/07 05:14:41;;;;;;;8.65;2.60;;;;;;;7.22;100.00;100109.72;5035013;28;20025;-78
2021/05/07 05:17:07;;;;;;;6.80;2.60;;;;;;;7.33;100.00;100105.44;5030595;28;20044;-78
2021/05/07 05:19:32;;;;;;;6.70;2.60;;;;;;;7.11;100.00;100106.81;5032336;28;20041;-78
2021/05/07 05:21:58;;;;;;;5.38;2.30;;;;;;;7.10;100.00;100117.84;5027254;28;20029;-78
2021/05/07 05:24:23;;;;;;;5.30;2.67;;;;;;;7.20;100.00;100123.47;5032755;28;20417;-78
2021/05/07 05:26:49;;;;;;;3.75;2.25;;;;;;;7.16;100.00;100124.50;5030121;28;20060;-78
2021/05/07 05:29:15;;;;;;;6.43;2.58;;;;;;;7.35;100.00;100123.81;5030226;28;20036;-78
2021/05/07 05:31:41;;;;;;;6.70;2.33;;;;;;;7.48;100.00;100139.44;5032405;28;20038;-77
2021/05/07 05:34:06;;;;;;;6.35;2.30;;;;;;;7.50;100.00;100126.50;5021674;28;20064;-79
2021/05/07 05:36:32;;;;;;;8.13;2.72;;;;;;;7.62;100.00;100129.09;5018682;28;20037;-78
2021/05/07 05:38:58;;;;;;;10.63;2.45;;;;;;;7.52;100.00;100129.59;5023524;28;20436;-78
2021/05/07 05:41:23;;;;;;;7.05;2.92;;;;;;;7.74;99.88;100130.88;5026708;28;20030;-78
2021/05/07 05:43:49;;;;;;;6.55;2.20;;;;;;;7.72;99.50;100143.84;5016852;28;20066;-78
2021/05/07 05:46:15;;;;;;;3.38;2.22;;;;;;;7.76;99.58;100145.47;5030508;28;20029;-78
2021/05/07 05:48:41;;;;;;;5.88;2.40;;;;;;;7.70;100.00;100143.41;5026332;28;20378;-77
2021/05/07 05:51:06;;;;;;;8.32;2.40;;;;;;;7.71;100.00;100144.97;5031989;28;20075;-79
2021/05/07 05:53:32;;;;;;;4.88;2.40;;;;;;;7.74;100.00;100149.63;5027746;28;20171;-78
2021/05/07 05:55:58;;;;;;;8.38;2.70;;;;;;;7.85;99.58;100147.97;5021106;28;20112;-79
2021/05/07 05:58:23;;;;;;;4.68;2.75;;;;;;;7.86;99.50;100155.66;4999141;28;20038;-78
2021/05/07 06:00:49;;;;;;;6.65;3.35;;;;;;;7.85;99.33;100164.06;5018095;28;20135;-78
2021/05/07 06:03:14;;;;;;;7.88;3.28;;;;;;;7.76;99.75;100158.13;5023063;28;20039;-79
2021/05/07 06:05:40;;;;;;;9.82;3.35;;;;;;;7.90;99.20;100161.09;5025554;28;20025;-79
2021/05/07 06:08:05;;;;;;;6.93;3.50;;;;;;;7.94;98.22;100172.69;5028378;28;20045;-78
2021/05/07 06:10:31;;;;;;;8.32;4.10;;;;;;;7.96;98.04;100162.38;5025091;28;20030;-78
2021/05/07 06:12:56;;;;;;;8.48;3.50;;;;;;;8.04;97.08;100162.22;5023174;28;20122;-78
2021/05/07 06:15:22;;;;;;;7.38;3.65;;;;;;;7.80;98.30;100162.41;5025014;28;20038;-78
2021/05/07 06:17:48;;;;;;;6.03;4.00;;;;;;;7.86;99.00;100166.38;5016190;28;20037;-78
2021/05/07 06:20:15;;;;;;;5.88;3.85;;;;;;;7.86;99.87;100168.28;5024226;28;20087;-77
2021/05/07 06:22:41;;;;;;;6.07;3.50;;;;;;;7.65;100.00;100171.25;5023388;28;20045;-78
2021/05/07 06:25:09;;;;;;;7.28;4.03;;;;;;;7.79;100.00;100176.16;5019187;28;20106;-78
2021/05/07 06:27:35;;;;;;;9.13;3.90;;;;;;;7.76;100.00;100176.88;5018900;28;20049;-78
2021/05/07 06:30:01;;;;;;;8.55;3.53;;;;;;;7.89;100.00;100176.44;5020682;28;20021;-79
2021/05/07 06:32:26;;;;;;;8.00;3.72;;;;;;;7.80;100.00;100178.50;5027820;28;20049;-78
2021/05/07 06:34:52;;;;;;;4.80;3.67;;;;;;;7.68;100.00;100180.50;5022218;28;20471;-78
2021/05/07 06:37:17;;;;;;;8.05;4.13;;;;;;;7.72;100.00;100181.38;5024584;28;20041;-79
2021/05/07 06:39:43;;;;;;;7.03;3.75;;;;;;;7.88;100.00;100182.09;5026377;28;20037;-78
2021/05/07 06:42:09;;;;;;;6.72;3.95;;;;;;;7.99;100.00;100185.84;5025806;28;20144;-79
2021/05/07 06:44:34;;;;;;;9.00;3.83;;;;;;;8.02;100.00;100191.28;5016833;28;20045;-78
2021/05/07 06:47:01;;;;;;;9.20;3.83;;;;;;;8.10;100.00;100192.19;5020734;28;20057;-79
2021/05/07 06:49:27;;;;;;;9.35;4.00;;;;;;;7.99;100.00;100191.19;5018432;28;20504;-78
2021/05/07 06:51:53;;;;;;;7.82;4.07;;;;;;;8.13;100.00;100196.84;5020659;28;20229;-78
2021/05/07 06:54:25;;;;;;;9.85;3.85;;;;;;;8.19;100.00;100201.63;5023918;28;20042;-78
2021/05/07 06:56:51;;;;;;;6.35;3.55;;;;;;;8.12;100.00;100201.47;5029346;28;20103;-78
2021/05/07 06:59:18;;;;;;;10.45;3.47;;;;;;;8.43;100.00;100208.69;5028595;28;20084;-79
2021/05/07 07:01:43;;;;;;;7.65;3.65;;;;;;;8.33;99.54;100206.53;5018234;28;20117;-78
2021/05/07 07:04:09;;;;;;;5.93;3.50;;;;;;;8.65;98.50;100213.34;5001944;28;20117;-78
2021/05/07 07:06:34;;;;;;;6.95;3.47;;;;;;;8.59;98.81;100214.78;5010559;28;20030;-78
2021/05/07 07:09:00;;;;;;;4.95;3.55;;;;;;;8.74;98.52;100216.63;5025634;28;20044;-78
2021/05/07 07:11:25;;;;;;;7.90;3.40;;;;;;;8.99;95.96;100217.91;5018576;28;20084;-77
2021/05/07 07:13:51;;;;;;;7.68;3.80;;;;;;;9.10;94.60;100216.19;5019542;28;20037;-77
2021/05/07 07:16:16;;;;;;;8.13;3.38;;;;;;;9.26;94.33;100221.47;5016150;28;20036;-78
2021/05/07 07:18:42;;;;;;;6.57;3.10;;;;;;;9.11;93.86;100227.72;5015399;28;20116;-78
2021/05/07 07:21:08;;;;;;;6.72;3.22;;;;;;;8.96;94.42;100229.31;5038313;22;20046;-80
2021/05/07 07:23:35;;;;;;;7.53;3.67;;;;;;;9.41;92.88;100223.25;5039496;28;20052;-79
2021/05/07 07:26:01;;;;;;;4.57;3.30;;;;;;;9.52;92.23;100228.84;5031816;28;20032;-79
2021/05/07 07:28:26;;;;;;;6.80;3.40;;;;;;;9.80;90.54;100229.31;5032665;28;20048;-80
2021/05/07 07:30:52;;;;;;;6.05;3.60;;;;;;;9.84;88.97;100225.53;5020836;28;20054;-79
2021/05/07 07:33:17;;;;;;;5.00;3.22;;;;;;;9.78;89.13;100228.88;5016347;28;20068;-79
2021/05/07 07:35:43;;;;;;;5.03;3.45;;;;;;;9.57;90.67;100231.22;5013461;28;20030;-80
2021/05/07 07:38:08;;;;;;;6.28;3.22;;;;;;;9.48;90.32;100231.47;5024785;28;20045;-79
2021/05/07 07:40:34;;;;;;;5.60;3.30;;;;;;;9.48;90.09;100238.75;5021140;28;20361;-79
2021/05/07 07:43:00;;;;;;;6.18;3.50;;;;;;;9.56;90.32;100240.44;5013061;28;20107;-80
2021/05/07 07:45:25;;;;;;;5.90;3.70;;;;;;;9.62;89.97;100237.06;5015777;28;21064;-79
2021/05/07 07:47:51;;;;;;;5.43;3.70;;;;;;;9.50;90.62;100241.84;5018688;28;20060;-79
2021/05/07 07:50:16;;;;;;;8.10;4.00;;;;;;;9.78;91.76;100245.00;5019381;28;20030;-79
2021/05/07 07:52:42;;;;;;;9.10;3.78;;;;;;;10.08;90.68;100247.81;5020963;28;20163;-80
2021/05/07 07:55:08;;;;;;;6.60;4.07;;;;;;;10.19;89.39;100252.25;5020750;28;20034;-79
2021/05/07 07:57:34;;;;;;;6.97;3.75;;;;;;;10.35;88.26;100247.50;5011298;28;20048;-80
2021/05/07 08:00:00;;;;;;;7.68;4.32;;;;;;;10.42;87.64;100255.66;5014903;28;20056;-79
2021/05/07 08:02:26;;;;;;;7.22;3.88;;;;;;;10.81;86.46;100248.91;5010573;28;20108;-80
2021/05/07 08:04:53;;;;;;;4.80;3.90;;;;;;;11.36;84.70;100260.69;5003182;28;20058;-80
2021/05/07 08:07:19;;;;;;;6.82;3.50;;;;;;;11.77;83.35;100258.78;5005667;28;20034;-81
2021/05/07 08:09:45;;;;;;;7.40;3.60;;;;;;;12.12;79.74;100253.69;5008336;28;20030;-80
2021/05/07 08:12:11;;;;;;;4.45;3.00;;;;;;;12.11;78.47;100254.06;5001788;28;20121;-81
2021/05/07 08:14:36;;;;;;;4.47;2.20;;;;;;;12.25;73.15;100262.28;5003341;28;20526;-80
2021/05/07 08:17:02;;;;;;;3.53;2.38;;;;;;;12.08;73.29;100262.94;5006189;28;20037;-81
2021/05/07 08:19:30;;;;;;;3.55;2.20;;;;;;;12.38;76.15;100266.22;5006121;28;20044;-80
2021/05/07 08:21:56;;;;;;;3.38;1.65;;;;;;;12.78;75.07;100267.97;5009736;28;20038;-80
2021/05/07 08:24:25;;;;;;;2.30;1.60;;;;;;;12.75;74.56;100268.75;5011156;28;20030;-81
2021/05/07 08:26:51;;;;;;;1.52;1.30;;;;;;;12.51;74.28;100281.75;5005116;28;20060;-80
2021/05/07 08:29:16;;;;;;;1.65;1.48;;;;;;;12.21;73.49;100280.38;5012194;28;20132;-81
2021/05/07 08:31:44;;;;;;;2.78;1.20;;;;;;;11.71;75.82;100288.03;5010053;28;20151;-82
2021/05/07 08:34:10;;;;;;;5.13;1.45;;;;;;;11.10;78.16;100284.25;5018085;28;20087;-81
2021/05/07 08:36:35;;;;;;;1.48;1.15;;;;;;;10.96;78.87;100292.94;5009105;28;20053;-81
2021/05/07 08:39:00;;;;;;;2.67;1.38;;;;;;;10.76;79.82;100286.91;5009893;28;20046;-81
2021/05/07 08:41:26;;;;;;;2.35;1.50;;;;;;;10.97;80.29;100291.03;5009975;28;20044;-80
2021/05/07 08:43:53;;;;;;;2.28;1.45;;;;;;;10.83;80.65;100297.78;5005482;28;20034;-79
2021/05/07 08:46:19;;;;;;;1.90;1.33;;;;;;;11.08;81.86;100298.09;5006396;28;20529;-79
2021/05/07 08:48:45;;;;;;;4.18;2.10;;;;;;;11.83;79.94;100305.13;5011506;28;20083;-79
2021/05/07 08:51:12;;;;;;;5.15;1.80;;;;;;;12.32;76.95;100317.09;5008117;28;20038;-79
2021/05/07 08:53:38;;;;;;;4.20;1.60;;;;;;;12.41;73.20;100325.66;5012854;28;20042;-79
2021/05/07 08:56:08;;;;;;;3.38;1.50;;;;;;;12.06;76.73;100346.19;5011551;28;20025;-79
2021/05/07 08:58:34;;;;;;;3.03;1.27;;;;;;;11.33;80.21;100345.00;5009195;28;20041;-78
2021/05/07 09:00:59;;;;;;;1.42;1.20;;;;;;;11.06;82.26;100337.31;5005353;28;20030;-78
2021/05/07 09:03:25;;;;;;;2.58;1.30;;;;;;;10.71;84.46;100346.47;4996331;28;20402;-79
2021/05/07 09:05:50;;;;;;;1.33;1.23;;;;;;;10.39;86.13;100344.44;5004416;28;20030;-79
2021/05/07 09:08:16;;;;;;;1.70;1.33;;;;;;;10.50;86.19;100345.38;5008190;28;20130;-78
2021/05/07 09:10:45;;;;;;;2.97;1.60;;;;;;;10.92;87.40;100335.22;5006359;28;20040;-78
2021/05/07 09:13:13;;;;;;;1.08;1.00;;;;;;;11.45;88.31;100344.75;4998302;28;20034;-78
2021/05/07 09:15:42;;;;;;;1.58;0.98;;;;;;;11.94;87.35;100341.84;5002107;28;20030;-79
2021/05/07 09:18:09;;;;;;;1.88;0.85;;;;;;;12.42;80.93;100340.72;4999360;28;20034;-79
2021/05/07 09:20:40;;;;;;;1.08;0.75;;;;;;;12.92;72.92;100341.03;5004656;28;20120;-79
2021/05/07 09:23:11;;;;;;;1.00;0.77;;;;;;;13.26;73.35;100343.16;5008804;28;20040;-79
2021/05/07 09:25:48;;;;;;;1.00;0.70;;;;;;;13.34;69.34;100339.34;5003624;28;20089;-78
2021/05/07 09:28:16;;;;;;;5.00;0.82;;;;;;;13.61;70.45;100347.19;5006058;28;20061;-78
2021/05/07 09:30:43;;;;;;;2.65;0.90;;;;;;;13.92;71.74;100351.84;5007988;28;20108;-78
2021/05/07 09:33:14;;;;;;;1.52;0.80;;;;;;;14.16;67.49;100361.97;5010468;28;20034;-78
2021/05/07 09:35:40;;;;;;;1.20;0.90;;;;;;;14.22;64.39;100365.84;5005417;28;20157;-78
2021/05/07 09:38:16;;;;;;;1.42;0.95;;;;;;;14.19;66.32;100367.38;5009329;28;20128;-78
2021/05/07 09:40:42;;;;;;;1.77;0.95;;;;;;;14.32;65.46;100359.69;5007278;28;20095;-78
2021/05/07 09:43:20;;;;;;;1.67;1.10;;;;;;;14.70;64.07;100374.38;5009328;28;20435;-79
2021/05/07 09:45:50;;;;;;;1.58;1.00;;;;;;;15.05;62.61;100368.91;5006017;28;20498;-78
2021/05/07 09:48:18;;;;;;;1.80;1.20;;;;;;;15.09;60.12;100364.22;5011197;28;20096;-79
2021/05/07 09:50:44;;;;;;;4.10;1.33;;;;;;;15.23;61.73;100370.38;5012910;28;20061;-78
2021/05/07 09:53:13;;;;;;;3.15;1.20;;;;;;;15.22;60.91;100373.50;5004283;28;20536;-79
2021/05/07 09:55:40;;;;;;;2.88;1.20;;;;;;;15.47;58.56;100378.84;4999100;28;20040;-79
2021/05/07 09:58:06;;;;;;;1.90;1.02;;;;;;;15.47;58.36;100378.84;4996667;28;20042;-79
2021/05/07 10:00:32;;;;;;;2.97;1.30;;;;;;;15.49;56.99;100385.44;5007689;28;20033;-78
2021/05/07 10:02:58;;;;;;;2.10;1.10;;;;;;;15.32;55.86;100391.69;5009039;28;20022;-79
2021/05/07 10:05:24;;;;;;;3.65;1.00;;;;;;;15.05;55.86;100391.38;4998115;28;20038;-79
2021/05/07 10:07:50;;;;;;;2.97;1.00;;;;;;;15.02;57.35;100402.22;5006450;28;20045;-80
2021/05/07 10:10:16;;;;;;;2.08;1.40;;;;;;;14.72;58.56;100405.38;4999525;28;20049;-79
2021/05/07 10:12:45;;;;;;;3.00;1.10;;;;;;;14.41;64.15;100422.38;5011200;28;20038;-79
2021/05/07 10:15:11;;;;;;;1.02;0.80;;;;;;;13.94;64.69;100415.31;5010034;28;20057;-78
2021/05/07 10:17:48;;;;;;;2.35;1.10;;;;;;;13.35;65.02;100426.69;4993323;28;20034;-79
2021/05/07 10:20:31;;;;;;;2.05;1.17;;;;;;;12.98;68.81;100434.13;4993468;28;20026;-79
2021/05/07 10:22:57;;;;;;;3.90;1.10;;;;;;;12.39;71.67;100435.19;5003241;28;20041;-80
2021/05/07 10:25:25;;;;;;;1.05;0.95;;;;;;;12.06;74.01;100438.72;4979942;28;20033;-78
2021/05/07 10:27:55;;;;;;;1.40;0.82;;;;;;;11.83;76.82;100443.47;5015951;28;20037;-79
2021/05/07 10:30:24;;;;;;;3.85;1.30;;;;;;;11.91;78.39;100441.63;4996000;28;20380;-79
2021/05/07 10:33:01;;;;;;;2.70;1.30;;;;;;;11.74;79.19;100440.28;5004719;28;20034;-79
2021/05/07 10:35:38;;;;;;;3.45;1.10;;;;;;;11.59;80.50;100457.41;4998450;28;20034;-80
2021/05/07 10:38:18;;;;;;;10.52;1.67;;;;;;;11.42;81.89;100441.78;5000898;28;20046;-78
2021/05/07 10:40:45;;;;;;;2.70;1.38;;;;;;;10.89;83.92;100436.41;5002778;28;20030;-79
2021/05/07 10:43:12;;;;;;;2.47;1.60;;;;;;;10.89;85.42;100436.41;5006763;28;20052;-79
2021/05/07 10:45:46;;;;;;;3.75;1.35;;;;;;;10.94;85.76;100437.25;4991621;28;20022;-80
2021/05/07 10:48:25;;;;;;;2.95;1.50;;;;;;;11.21;87.61;100441.47;5006357;28;20176;-80
2021/05/07 10:50:54;;;;;;;3.10;1.85;;;;;;;11.84;88.94;100434.25;5001090;28;20044;-80
2021/05/07 10:53:28;;;;;;;2.30;1.70;;;;;;;12.39;88.47;100435.19;4995516;28;20038;-80
2021/05/07 10:55:55;;;;;;;4.40;1.60;;;;;;;12.58;85.85;100435.75;4999989;28;20037;-79
2021/05/07 10:58:37;;;;;;;3.92;1.35;;;;;;;12.88;83.36;100438.31;5012882;28;20045;-81
2021/05/07 11:01:19;;;;;;;4.32;1.80;;;;;;;13.05;82.17;100450.44;5008504;28;20037;-79
2021/05/07 11:03:45;;;;;;;3.70;2.10;;;;;;;12.72;81.37;100454.00;5027819;28;20030;-78
2021/05/07 11:06:11;;;;;;;3.97;1.85;;;;;;;12.53;81.40;100456.94;5007834;28;20424;-78
2021/05/07 11:08:36;;;;;;;2.13;1.67;;;;;;;12.42;81.14;100461.47;5011218;28;20116;-78
2021/05/07 11:11:02;;;;;;;4.45;1.90;;;;;;;12.24;83.04;100466.69;5003922;28;20033;-79
2021/05/07 11:13:28;;;;;;;3.90;1.95;;;;;;;12.30;82.29;100472.53;5007873;28;20140;-79
2021/05/07 11:16:00;;;;;;;2.70;1.77;;;;;;;12.17;83.70;100473.94;5011864;28;20116;-82
2021/05/07 11:18:32;;;;;;;4.63;1.80;;;;;;;11.90;85.16;100467.84;5011794;28;20502;-81
2021/05/07 11:20:58;;;;;;;2.42;1.65;;;;;;;12.23;86.38;100472.47;5021251;28;20142;-82
2021/05/07 11:23:30;;;;;;;3.85;1.50;;;;;;;12.85;85.48;100474.22;5025996;28;20071;-79
2021/05/07 11:26:03;;;;;;;2.83;1.40;;;;;;;13.25;82.52;100466.03;5012844;28;20034;-79
2021/05/07 11:28:28;;;;;;;3.28;1.85;;;;;;;13.84;82.00;100470.19;5006939;28;20030;-79
2021/05/07 11:30:58;;;;;;;3.20;1.92;;;;;;;14.29;79.10;100458.75;5007965;28;20037;-79
2021/05/07 11:33:29;;;;;;;1.40;1.00;;;;;;;14.61;71.13;100461.53;5019657;28;20566;-79